createdAt,value
2022-11-09T00:00:06.095Z,15.10
2022-11-09T00:02:32.482Z,12.70
2022-11-09T00:04:58.805Z,12.93
2022-11-09T00:07:25.168Z,16.35
2022-11-09T00:09:51.559Z,14.55
2022-11-09T00:12:18.044Z,21.52
2022-11-09T00:14:44.530Z,15.05
2022-11-09T00:17:10.940Z,17.20
2022-11-09T00:19:37.324Z,12.13
2022-11-09T00:22:03.746Z,12.00
2022-11-09T00:24:30.067Z,13.50
2022-11-09T00:26:56.401Z,13.73
2022-11-09T00:29:22.756Z,17.60
2022-11-09T00:31:49.740Z,18.42
2022-11-09T00:34:16.090Z,15.45
2022-11-09T00:36:42.457Z,15.98
2022-11-09T00:39:08.794Z,15.95
2022-11-09T00:41:35.227Z,17.73
2022-11-09T00:44:04.630Z,11.35
2022-11-09T00:46:31.362Z,8.70
2022-11-09T00:48:57.871Z,12.68
2022-11-09T00:51:24.278Z,17.85
2022-11-09T00:53:54.563Z,12.05
2022-11-09T00:56:21.712Z,11.23
2022-11-09T00:58:48.103Z,15.95
2022-11-09T01:01:17.765Z,13.85
2022-11-09T01:03:44.962Z,19.08
2022-11-09T01:06:18.724Z,10.90
2022-11-09T01:08:45.613Z,15.18
2022-11-09T01:11:12.293Z,16.17
2022-11-09T01:13:38.862Z,12.68
2022-11-09T01:16:06.743Z,13.23
2022-11-09T01:18:33.696Z,13.27
2022-11-09T01:21:01.791Z,15.57
2022-11-09T01:23:28.129Z,17.90
2022-11-09T01:25:59.494Z,15.52
2022-11-09T01:28:27.744Z,17.00
2022-11-09T01:30:54.160Z,13.50
2022-11-09T01:33:20.795Z,14.05
2022-11-09T01:35:47.433Z,14.93
2022-11-09T01:38:13.816Z,16.25
2022-11-09T01:40:40.376Z,15.32
2022-11-09T01:43:14.092Z,20.00
2022-11-09T01:45:41.072Z,19.95
2022-11-09T01:48:13.574Z,16.33
2022-11-09T01:50:43.143Z,19.80
2022-11-09T01:53:12.688Z,16.25
2022-11-09T01:55:41.509Z,21.50
2022-11-09T01:58:10.684Z,11.15
2022-11-09T02:00:38.957Z,13.82
2022-11-09T02:03:07.730Z,15.95
2022-11-09T02:05:36.329Z,9.77
2022-11-09T02:08:05.322Z,12.55
2022-11-09T02:10:34.142Z,14.13
2022-11-09T02:13:00.536Z,13.85
2022-11-09T02:15:27.751Z,11.20
2022-11-09T02:17:54.784Z,11.82
2022-11-09T02:20:21.683Z,8.57
2022-11-09T02:22:48.153Z,15.07
2022-11-09T02:25:15.360Z,9.75
2022-11-09T02:27:43.124Z,15.48
2022-11-09T02:30:10.152Z,17.55
2022-11-09T02:32:36.486Z,13.80
2022-11-09T02:35:02.890Z,20.90
2022-11-09T02:37:29.238Z,17.77
2022-11-09T02:39:58.320Z,15.40
2022-11-09T02:42:25.025Z,11.70
2022-11-09T02:44:53.038Z,18.25
2022-11-09T02:47:19.358Z,11.38
2022-11-09T02:49:45.791Z,14.68
2022-11-09T02:52:12.233Z,12.88
2022-11-09T02:54:38.578Z,9.10
2022-11-09T02:57:05.102Z,9.77
2022-11-09T02:59:31.436Z,12.43
2022-11-09T03:01:57.761Z,17.95
2022-11-09T03:04:28.361Z,15.02
2022-11-09T03:06:54.841Z,14.00
2022-11-09T03:09:21.251Z,11.18
2022-11-09T03:11:47.671Z,12.15
2022-11-09T03:14:14.035Z,10.70
2022-11-09T03:16:40.360Z,14.18
2022-11-09T03:19:06.888Z,11.82
2022-11-09T03:21:33.265Z,12.38
2022-11-09T03:23:59.806Z,10.68
2022-11-09T03:26:26.346Z,13.82
2022-11-09T03:28:52.692Z,13.30
2022-11-09T03:31:19.055Z,15.00
2022-11-09T03:33:45.403Z,16.08
2022-11-09T03:36:11.750Z,7.93
2022-11-09T03:38:38.095Z,12.05
2022-11-09T03:41:04.478Z,10.10
2022-11-09T03:43:33.127Z,14.25
2022-11-09T03:45:59.526Z,17.25
2022-11-09T03:48:26.002Z,11.35
2022-11-09T03:50:52.424Z,10.07
2022-11-09T03:53:19.148Z,14.43
2022-11-09T03:55:45.790Z,13.05
2022-11-09T03:58:13.262Z,10.63
2022-11-09T04:00:39.864Z,14.43
2022-11-09T04:03:06.242Z,14.82
2022-11-09T04:05:32.865Z,10.50
2022-11-09T04:07:59.633Z,12.55
2022-11-09T04:10:26.533Z,12.60
2022-11-09T04:12:52.929Z,13.68
2022-11-09T04:15:19.633Z,12.13
2022-11-09T04:17:53.968Z,12.13
2022-11-09T04:20:22.174Z,13.07
2022-11-09T04:22:53.777Z,13.73
2022-11-09T04:25:20.110Z,9.40
2022-11-09T04:27:46.688Z,11.93
2022-11-09T04:30:13.093Z,8.60
2022-11-09T04:32:39.441Z,9.85
2022-11-09T04:35:06.044Z,10.13
2022-11-09T04:37:35.493Z,14.88
2022-11-09T04:40:01.807Z,14.23
2022-11-09T04:42:28.147Z,12.55
2022-11-09T04:44:54.629Z,17.85
2022-11-09T04:47:21.132Z,11.23
2022-11-09T04:49:47.466Z,14.15
2022-11-09T04:52:13.787Z,11.23
2022-11-09T04:54:40.160Z,8.68
2022-11-09T04:57:06.534Z,10.88
2022-11-09T04:59:32.901Z,13.27
2022-11-09T05:01:59.215Z,10.02
2022-11-09T05:04:25.563Z,14.52
2022-11-09T05:06:52.057Z,10.48
2022-11-09T05:09:18.864Z,8.15
2022-11-09T05:11:45.335Z,14.05
2022-11-09T05:14:11.708Z,11.35
2022-11-09T05:16:38.048Z,11.93
2022-11-09T05:19:06.594Z,14.00
2022-11-09T05:21:33.114Z,15.55
2022-11-09T05:23:59.559Z,13.45
2022-11-09T05:26:30.179Z,12.73
2022-11-09T05:28:57.644Z,11.32
2022-11-09T05:31:23.992Z,11.18
2022-11-09T05:33:51.307Z,14.07
2022-11-09T05:36:21.035Z,9.18
2022-11-09T05:38:47.416Z,14.55
2022-11-09T05:41:13.779Z,9.32
2022-11-09T05:43:40.329Z,10.10
2022-11-09T05:46:07.034Z,14.90
2022-11-09T05:48:33.604Z,10.60
2022-11-09T05:51:04.324Z,14.88
2022-11-09T05:53:31.202Z,12.00
2022-11-09T05:56:01.460Z,6.72
2022-11-09T05:58:27.862Z,11.57
2022-11-09T06:00:54.189Z,14.40
2022-11-09T06:03:20.786Z,11.32
2022-11-09T06:05:47.584Z,11.05
2022-11-09T06:08:14.948Z,11.50
2022-11-09T06:10:42.317Z,9.98
2022-11-09T06:13:08.721Z,14.70
2022-11-09T06:15:35.254Z,13.30
2022-11-09T06:18:05.678Z,12.27
2022-11-09T06:20:33.390Z,11.88
2022-11-09T06:23:03.451Z,13.80
2022-11-09T06:25:31.676Z,12.57
2022-11-09T06:27:58.404Z,16.33
2022-11-09T06:30:24.812Z,12.20
2022-11-09T06:32:51.192Z,12.38
2022-11-09T06:35:17.553Z,11.13
2022-11-09T06:37:44.378Z,10.30
2022-11-09T06:40:12.629Z,15.98
2022-11-09T06:42:39.061Z,12.60
2022-11-09T06:45:05.909Z,14.52
2022-11-09T06:47:32.298Z,12.27
2022-11-09T06:49:58.613Z,9.85
2022-11-09T06:52:26.017Z,12.80
2022-11-09T06:54:52.331Z,12.57
2022-11-09T06:57:18.719Z,12.93
2022-11-09T06:59:45.053Z,12.57
2022-11-09T07:02:14.888Z,8.75
2022-11-09T07:04:41.263Z,8.00
2022-11-09T07:07:07.645Z,12.75
2022-11-09T07:09:34.045Z,8.52
2022-11-09T07:12:00.374Z,16.85
2022-11-09T07:14:26.786Z,10.93
2022-11-09T07:16:53.139Z,9.55
2022-11-09T07:19:19.464Z,10.30
2022-11-09T07:21:45.886Z,16.52
2022-11-09T07:24:12.202Z,16.17
2022-11-09T07:26:38.521Z,17.95
2022-11-09T07:29:04.890Z,12.82
2022-11-09T07:31:31.953Z,12.40
2022-11-09T07:33:59.001Z,14.52
2022-11-09T07:36:25.315Z,17.83
2022-11-09T07:38:51.649Z,11.73
2022-11-09T07:41:17.981Z,14.05
2022-11-09T07:43:46.710Z,13.95
2022-11-09T07:46:13.168Z,13.18
2022-11-09T07:48:39.476Z,12.57
2022-11-09T07:51:05.937Z,12.65
2022-11-09T07:53:32.734Z,18.35
2022-11-09T07:56:00.134Z,21.35
2022-11-09T07:58:26.462Z,15.38
2022-11-09T08:00:52.886Z,8.93
2022-11-09T08:03:20.207Z,16.98
2022-11-09T08:05:46.759Z,18.25
2022-11-09T08:08:13.426Z,13.77
2022-11-09T08:10:39.816Z,14.90
2022-11-09T08:13:08.259Z,14.75
2022-11-09T08:15:35.118Z,14.07
2022-11-09T08:18:02.341Z,17.95
2022-11-09T08:20:29.400Z,9.88
2022-11-09T08:22:58.424Z,13.70
2022-11-09T08:25:29.602Z,11.27
2022-11-09T08:27:56.428Z,10.85
2022-11-09T08:30:22.853Z,13.02
2022-11-09T08:32:49.490Z,15.07
2022-11-09T08:35:19.382Z,19.40
2022-11-09T08:37:49.052Z,12.43
2022-11-09T08:40:17.003Z,10.68
2022-11-09T08:42:43.400Z,15.27
2022-11-09T08:45:10.216Z,16.75
2022-11-09T08:47:36.806Z,12.55
2022-11-09T08:50:04.550Z,9.82
2022-11-09T08:52:34.311Z,14.52
2022-11-09T08:55:00.848Z,11.60
2022-11-09T08:57:27.199Z,12.45
2022-11-09T08:59:53.528Z,12.30
2022-11-09T09:02:20.739Z,13.77
2022-11-09T09:04:47.200Z,13.15
2022-11-09T09:07:13.872Z,13.57
2022-11-09T09:09:42.321Z,8.93
2022-11-09T09:12:09.309Z,12.45
2022-11-09T09:14:35.789Z,17.65
2022-11-09T09:17:02.329Z,13.43
2022-11-09T09:19:28.723Z,16.00
2022-11-09T09:21:55.114Z,8.52
2022-11-09T09:24:21.535Z,5.68
2022-11-09T09:26:48.422Z,11.90
2022-11-09T09:29:14.908Z,6.97
2022-11-09T09:31:41.448Z,15.77
2022-11-09T09:34:07.984Z,14.70
2022-11-09T09:36:35.547Z,10.63
2022-11-09T09:39:02.074Z,13.48
2022-11-09T09:41:34.480Z,8.07
2022-11-09T09:44:19.831Z,16.02
2022-11-09T09:46:55.053Z,12.10
2022-11-09T09:49:28.798Z,11.90
2022-11-09T09:51:55.158Z,13.75
2022-11-09T09:54:24.193Z,12.77
2022-11-09T09:56:51.310Z,15.02
2022-11-09T09:59:40.181Z,13.25
2022-11-09T10:02:15.866Z,13.30
2022-11-09T10:04:42.303Z,10.13
2022-11-09T10:07:18.934Z,20.50
2022-11-09T10:10:03.612Z,5.13
2022-11-09T10:12:48.727Z,9.45
2022-11-09T10:15:26.673Z,10.02
2022-11-09T10:18:08.721Z,7.53
2022-11-09T10:20:39.502Z,12.52
2022-11-09T10:23:08.861Z,9.82
2022-11-09T10:28:34.277Z,16.52
2022-11-09T10:31:15.068Z,7.65
2022-11-09T10:33:41.474Z,14.02
2022-11-09T10:36:19.128Z,14.93
2022-11-09T10:38:47.279Z,11.90
2022-11-09T10:41:16.482Z,9.10
2022-11-09T10:43:42.793Z,17.02
2022-11-09T10:46:09.136Z,13.55
2022-11-09T10:48:37.041Z,13.23
2022-11-09T10:51:03.832Z,8.88
2022-11-09T10:53:31.161Z,9.25
2022-11-09T10:55:58.699Z,7.05
2022-11-09T10:58:27.984Z,9.00
2022-11-09T11:01:05.497Z,9.48
2022-11-09T11:03:34.080Z,15.00
2022-11-09T11:06:02.037Z,10.27
2022-11-09T11:08:32.891Z,10.75
2022-11-09T11:11:33.216Z,10.05
2022-11-09T11:16:32.835Z,9.77
2022-11-09T11:18:59.514Z,11.30
2022-11-09T11:21:29.114Z,12.57
2022-11-09T11:24:14.399Z,13.98
2022-11-09T11:26:40.712Z,7.60
2022-11-09T11:29:13.699Z,10.52
2022-11-09T11:31:40.021Z,16.17
2022-11-09T11:34:18.978Z,8.70
2022-11-09T11:36:53.190Z,6.45
2022-11-09T11:39:29.720Z,10.10
2022-11-09T11:42:21.620Z,9.75
2022-11-09T11:45:03.175Z,10.32
2022-11-09T11:50:08.390Z,8.27
2022-11-09T11:52:54.292Z,7.88
2022-11-09T11:55:20.697Z,5.05
2022-11-09T11:58:06.712Z,8.55
2022-11-09T12:00:37.918Z,7.35
2022-11-09T12:03:23.557Z,6.53
2022-11-09T12:06:02.725Z,6.68
2022-11-09T12:08:38.716Z,6.68
2022-11-09T12:11:25.347Z,4.50
2022-11-09T12:14:06.774Z,9.18
2022-11-09T12:16:45.286Z,4.63
2022-11-09T12:19:35.330Z,3.03
2022-11-09T12:22:02.251Z,6.15
2022-11-09T12:24:37.977Z,9.32
2022-11-09T12:27:31.996Z,8.18
2022-11-09T12:30:05.197Z,8.90
2022-11-09T12:32:37.657Z,6.72
2022-11-09T12:35:04.034Z,6.50
2022-11-09T12:37:35.624Z,7.85
2022-11-09T12:40:22.216Z,12.95
2022-11-09T12:42:48.506Z,10.25
2022-11-09T12:45:41.311Z,12.40
2022-11-09T12:48:16.008Z,9.23
2022-11-09T12:50:42.897Z,8.68
2022-11-09T12:53:09.455Z,10.63
2022-11-09T12:55:40.155Z,11.02
2022-11-09T12:58:06.648Z,4.97
2022-11-09T13:00:35.819Z,9.35
2022-11-09T13:03:04.468Z,8.40
2022-11-09T13:05:35.879Z,9.93
2022-11-09T13:08:03.008Z,8.00
2022-11-09T13:10:34.575Z,4.65
2022-11-09T13:13:16.320Z,9.75
2022-11-09T13:16:04.567Z,7.35
2022-11-09T13:18:46.750Z,14.18
2022-11-09T13:21:32.767Z,6.20
2022-11-09T13:24:24.059Z,10.80
2022-11-09T13:26:50.720Z,9.25
2022-11-09T13:29:23.154Z,11.82
2022-11-09T13:32:08.268Z,10.05
2022-11-09T13:35:07.247Z,9.10
2022-11-09T13:37:37.628Z,8.88
2022-11-09T13:40:25.649Z,9.85
2022-11-09T13:43:10.383Z,8.98
2022-11-09T13:45:55.931Z,11.68
2022-11-09T13:48:31.478Z,12.35
2022-11-09T13:51:00.877Z,10.48
2022-11-09T13:53:28.524Z,15.07
2022-11-09T13:55:54.950Z,8.50
2022-11-09T13:58:25.050Z,11.02
2022-11-09T14:00:51.432Z,11.05
2022-11-09T14:03:28.401Z,5.88
2022-11-09T14:05:55.995Z,10.90
2022-11-09T14:08:24.260Z,8.70
2022-11-09T14:10:53.625Z,10.45
2022-11-09T14:13:40.401Z,8.90
2022-11-09T14:16:12.063Z,9.43
2022-11-09T14:19:03.324Z,10.77
2022-11-09T14:21:35.852Z,12.40
2022-11-09T14:24:03.456Z,13.40
2022-11-09T14:26:29.918Z,8.95
2022-11-09T14:28:56.326Z,11.45
2022-11-09T14:31:27.511Z,16.70
2022-11-09T14:34:06.336Z,9.85
2022-11-09T14:36:34.937Z,11.15
2022-11-09T14:39:04.885Z,8.02
2022-11-09T14:41:31.447Z,12.95
2022-11-09T14:43:59.336Z,12.52
2022-11-09T14:46:27.236Z,7.90
2022-11-09T14:48:55.715Z,14.88
2022-11-09T14:51:30.544Z,16.98
2022-11-09T14:53:57.520Z,14.32
2022-11-09T14:56:24.456Z,18.83
2022-11-09T14:58:51.391Z,14.27
2022-11-09T15:01:17.843Z,7.47
2022-11-09T15:03:44.813Z,15.32
2022-11-09T15:06:12.509Z,15.32
2022-11-09T15:08:52.187Z,11.98
2022-11-09T15:11:18.764Z,12.02
2022-11-09T15:13:46.511Z,15.25
2022-11-09T15:16:23.668Z,12.25
2022-11-09T15:18:50.189Z,12.95
2022-11-09T15:21:18.970Z,11.10
2022-11-09T15:23:49.296Z,23.60
2022-11-09T15:26:25.949Z,24.70
2022-11-09T15:28:52.525Z,18.05
2022-11-09T15:31:19.448Z,16.27
2022-11-09T15:33:48.132Z,14.15
2022-11-09T15:36:31.563Z,10.13
2022-11-09T15:39:00.959Z,15.63
2022-11-09T15:41:27.408Z,10.75
2022-11-09T15:43:54.125Z,15.55
2022-11-09T15:46:24.494Z,14.52
2022-11-09T15:48:51.638Z,11.35
2022-11-09T15:51:18.459Z,15.27
2022-11-09T15:53:44.865Z,13.70
2022-11-09T15:56:19.589Z,22.83
2022-11-09T15:58:48.628Z,11.23
2022-11-09T16:01:15.266Z,13.15
2022-11-09T16:03:41.712Z,11.18
2022-11-09T16:06:09.770Z,10.93
2022-11-09T16:08:36.186Z,11.13
2022-11-09T16:11:06.284Z,12.38
2022-11-09T16:13:32.704Z,23.92
2022-11-09T16:16:05.502Z,14.90
2022-11-09T16:18:32.357Z,25.63
2022-11-09T16:21:06.668Z,16.33
2022-11-09T16:23:32.983Z,15.40
2022-11-09T16:25:59.688Z,15.85
2022-11-09T16:28:26.026Z,13.20
2022-11-09T16:30:52.403Z,23.40
2022-11-09T16:33:18.834Z,12.43
2022-11-09T16:35:45.189Z,15.00
2022-11-09T16:38:11.529Z,18.02
2022-11-09T16:40:38.331Z,18.55
2022-11-09T16:43:04.727Z,11.15
2022-11-09T16:45:33.547Z,13.15
2022-11-09T16:48:04.449Z,13.90
2022-11-09T16:50:31.009Z,17.58
2022-11-09T16:52:57.356Z,15.15
2022-11-09T16:55:23.732Z,12.80
2022-11-09T16:57:50.060Z,20.08
2022-11-09T17:00:19.467Z,11.02
2022-11-09T17:02:45.819Z,16.27
2022-11-09T17:05:12.198Z,18.80
2022-11-09T17:07:42.764Z,9.68
2022-11-09T17:10:09.657Z,20.55
2022-11-09T17:12:36.016Z,11.50
2022-11-09T17:15:02.372Z,17.25
2022-11-09T17:17:28.740Z,13.35
2022-11-09T17:19:55.100Z,9.90
2022-11-09T17:22:24.500Z,12.88
2022-11-09T17:24:50.943Z,18.48
2022-11-09T17:27:17.333Z,17.58
2022-11-09T17:29:43.643Z,16.17
2022-11-09T17:32:10.363Z,15.55
2022-11-09T17:34:36.822Z,13.30
2022-11-09T17:37:05.211Z,13.55
2022-11-09T17:39:34.989Z,15.45
2022-11-09T17:42:01.303Z,13.35
2022-11-09T17:44:27.699Z,27.52
2022-11-09T17:46:54.143Z,12.20
2022-11-09T17:49:20.521Z,14.30
2022-11-09T17:51:46.965Z,16.73
2022-11-09T17:54:14.952Z,22.45
2022-11-09T17:56:43.530Z,15.70
2022-11-09T17:59:09.891Z,10.13
2022-11-09T18:01:41.539Z,18.60
2022-11-09T18:04:09.215Z,15.10
2022-11-09T18:06:35.676Z,20.42
2022-11-09T18:11:48.415Z,17.67
2022-11-09T18:14:15.906Z,10.90
2022-11-09T18:16:42.419Z,12.23
2022-11-09T18:19:08.821Z,14.85
2022-11-09T18:21:35.183Z,16.35
2022-11-09T18:24:01.517Z,23.65
2022-11-09T18:26:27.854Z,21.80
2022-11-09T18:28:55.647Z,16.10
2022-11-09T18:31:22.040Z,23.50
2022-11-09T18:33:49.443Z,19.70
2022-11-09T18:36:18.530Z,15.07
2022-11-09T18:38:45.161Z,23.63
2022-11-09T18:41:15.579Z,15.50
2022-11-09T18:43:41.986Z,19.88
2022-11-09T18:46:09.510Z,15.23
2022-11-09T18:48:37.476Z,15.43
2022-11-09T18:51:04.338Z,14.45
2022-11-09T18:53:34.977Z,14.52
2022-11-09T18:56:07.000Z,18.98
2022-11-09T18:58:33.953Z,14.13
2022-11-09T19:01:02.173Z,17.98
2022-11-09T19:03:28.532Z,16.25
2022-11-09T19:05:54.909Z,18.77
2022-11-09T19:08:39.843Z,18.70
2022-11-09T19:11:07.162Z,19.40
2022-11-09T19:13:33.514Z,17.98
2022-11-09T19:15:59.974Z,13.45
2022-11-09T19:18:26.963Z,16.35
2022-11-09T19:20:53.457Z,21.02
2022-11-09T19:23:19.844Z,11.43
2022-11-09T19:25:46.172Z,16.65
2022-11-09T19:28:12.506Z,17.33
2022-11-09T19:30:38.911Z,20.27
2022-11-09T19:33:05.289Z,22.60
2022-11-09T19:35:36.391Z,27.13
2022-11-09T19:38:06.372Z,23.42
2022-11-09T19:40:38.386Z,24.23
2022-11-09T19:43:05.884Z,20.80
2022-11-09T19:45:32.282Z,18.50
2022-11-09T19:47:58.828Z,17.80
2022-11-09T19:50:25.160Z,23.70
2022-11-09T19:52:51.524Z,21.50
2022-11-09T19:55:17.918Z,25.27
2022-11-09T19:57:44.232Z,22.65
2022-11-09T20:00:11.217Z,17.77
2022-11-09T20:02:37.540Z,22.70
2022-11-09T20:05:04.194Z,19.30
2022-11-09T20:07:31.565Z,25.02
2022-11-09T20:09:57.903Z,18.17
2022-11-09T20:12:42.984Z,19.45
2022-11-09T20:15:09.382Z,18.55
2022-11-09T20:17:35.808Z,27.92
2022-11-09T20:20:02.206Z,21.50
2022-11-09T20:22:28.541Z,17.70
2022-11-09T20:24:54.911Z,19.35
2022-11-09T20:27:21.320Z,20.52
2022-11-09T20:29:47.664Z,17.40
2022-11-09T20:32:16.662Z,29.60
2022-11-09T20:34:45.477Z,20.92
2022-11-09T20:37:11.943Z,21.25
2022-11-09T20:39:40.579Z,22.52
2022-11-09T20:42:07.389Z,24.35
2022-11-09T20:44:33.862Z,21.08
2022-11-09T20:47:00.345Z,23.70
2022-11-09T20:49:26.812Z,27.08
2022-11-09T20:51:53.327Z,22.02
2022-11-09T20:54:22.090Z,18.75
2022-11-09T20:56:48.454Z,27.83
2022-11-09T20:59:14.778Z,21.10
2022-11-09T21:01:41.213Z,26.80
2022-11-09T21:04:07.780Z,24.38
2022-11-09T21:06:34.423Z,19.15
2022-11-09T21:09:05.588Z,20.15
2022-11-09T21:11:34.747Z,21.40
2022-11-09T21:14:01.105Z,25.35
2022-11-09T21:16:27.846Z,28.20
2022-11-09T21:18:54.209Z,23.45
2022-11-09T21:21:24.856Z,26.52
2022-11-09T21:24:09.651Z,23.25
2022-11-09T21:26:54.925Z,25.95
2022-11-09T21:29:41.302Z,29.30
2022-11-09T21:32:07.952Z,25.23
2022-11-09T21:34:37.133Z,23.58
2022-11-09T21:37:04.113Z,23.98
2022-11-09T21:39:30.446Z,23.30
2022-11-09T21:41:56.898Z,24.20
2022-11-09T21:44:23.514Z,22.27
2022-11-09T21:46:49.877Z,22.90
2022-11-09T21:49:16.198Z,17.98
2022-11-09T21:51:42.622Z,21.33
2022-11-09T21:54:09.560Z,19.95
2022-11-09T21:56:35.988Z,22.48
2022-11-09T21:59:02.533Z,19.02
2022-11-09T22:01:28.970Z,28.17
2022-11-09T22:03:55.475Z,23.65
2022-11-09T22:06:21.858Z,34.17
2022-11-09T22:08:48.348Z,25.98
2022-11-09T22:11:15.725Z,23.00
2022-11-09T22:14:00.819Z,31.45
2022-11-09T22:16:27.810Z,36.60
2022-11-09T22:19:12.534Z,37.67
2022-11-09T22:21:39.041Z,28.38
2022-11-09T22:24:06.139Z,20.85
2022-11-09T22:26:32.477Z,32.25
2022-11-09T22:28:58.847Z,36.22
2022-11-09T22:31:25.717Z,33.88
2022-11-09T22:33:52.445Z,27.13
2022-11-09T22:36:19.214Z,29.80
2022-11-09T22:38:46.040Z,24.65
2022-11-09T22:41:13.525Z,29.00
2022-11-09T22:43:41.426Z,22.45
2022-11-09T22:46:09.159Z,23.88
2022-11-09T22:48:36.210Z,25.35
2022-11-09T22:51:02.788Z,17.27
2022-11-09T22:53:29.150Z,23.33
2022-11-09T22:55:58.169Z,24.70
2022-11-09T22:58:25.309Z,22.38
2022-11-09T23:00:52.057Z,31.98
2022-11-09T23:03:20.824Z,29.38
2022-11-09T23:05:50.288Z,22.80
2022-11-09T23:08:16.639Z,23.02
2022-11-09T23:10:43.012Z,30.75
2022-11-09T23:13:09.338Z,25.98
2022-11-09T23:15:35.821Z,28.30
2022-11-09T23:18:20.584Z,25.38
2022-11-09T23:20:48.017Z,21.38
2022-11-09T23:23:14.332Z,14.27
2022-11-09T23:25:56.577Z,23.38
2022-11-09T23:28:23.964Z,22.33
2022-11-09T23:30:50.339Z,19.67
2022-11-09T23:33:16.669Z,18.73
2022-11-09T23:35:43.068Z,33.97
2022-11-09T23:38:09.507Z,23.67
2022-11-09T23:40:35.915Z,29.00
2022-11-09T23:43:06.785Z,34.13
2022-11-09T23:45:34.311Z,30.92
2022-11-09T23:48:00.861Z,26.58
2022-11-09T23:50:27.388Z,20.27
2022-11-09T23:52:56.025Z,21.38
2022-11-09T23:55:22.541Z,16.77
2022-11-09T23:57:48.892Z,25.55
